Terminal Aerodrome Forecast
Issued by NWS

Home | Current Version | Previous Version | Text Only | Print | Product List | Glossary On
Versions: 1 2 3 4 5 6 7 8 9 10 11 12
322
FTUS42 TJSJ 270540
TAFJMZ
TAF
TJMZ 270540Z 2706/2806 00000KT P6SM FEW060
      TEMPO 2707/2709 SCT030 BKN060
     FM271630 27010KT P6SM VCSH SCT040
     FM272300 00000KT P6SM FEW060
      AMD NOT SKED=

USA.gov is the U.S. government's official web portal to all federal, state and local government web resources and services.